createdAt,value
2018-10-21T00:01:28.057Z,93.80
2018-10-21T00:03:57.100Z,93.40
2018-10-21T00:06:26.052Z,93.70
2018-10-21T00:08:55.074Z,94.20
2018-10-21T00:11:23.988Z,94.50
2018-10-21T00:13:53.056Z,94.50
2018-10-21T00:16:22.080Z,94.50
2018-10-21T00:18:51.075Z,94.70
2018-10-21T00:21:20.081Z,94.90
2018-10-21T00:23:49.030Z,94.90
2018-10-21T00:26:18.059Z,95.10
2018-10-21T00:28:47.057Z,95.10
2018-10-21T00:31:16.247Z,94.90
2018-10-21T00:33:45.248Z,94.80
2018-10-21T00:36:14.244Z,94.60
2018-10-21T00:38:43.228Z,94.60
2018-10-21T00:41:12.376Z,94.80
2018-10-21T00:43:41.376Z,94.80
2018-10-21T00:46:10.333Z,94.90
2018-10-21T00:48:39.312Z,95.00
2018-10-21T00:51:08.328Z,94.20
2018-10-21T00:53:37.339Z,94.50
2018-10-21T00:56:06.298Z,94.80
2018-10-21T00:58:35.299Z,95.00
2018-10-21T01:01:04.416Z,95.00
2018-10-21T01:03:33.477Z,94.20
2018-10-21T01:06:02.680Z,93.80
2018-10-21T01:08:32.633Z,93.80
2018-10-21T01:11:01.529Z,94.20
2018-10-21T01:13:30.462Z,94.50
2018-10-21T01:15:59.436Z,94.70
2018-10-21T01:18:28.579Z,94.90
2018-10-21T01:20:57.627Z,95.00
2018-10-21T01:23:26.640Z,95.10
2018-10-21T01:25:55.606Z,95.10
2018-10-21T01:28:24.548Z,95.30
2018-10-21T01:30:53.532Z,95.00
2018-10-21T01:33:22.497Z,95.10
2018-10-21T01:35:51.474Z,95.30
2018-10-21T01:38:20.489Z,95.00
2018-10-21T01:40:50.691Z,94.90
2018-10-21T01:43:20.891Z,94.90
2018-10-21T01:45:50.011Z,95.40
2018-10-21T01:48:20.008Z,95.50
2018-10-21T01:50:49.018Z,95.50
2018-10-21T01:53:18.702Z,95.60
2018-10-21T01:55:47.647Z,95.80
2018-10-21T01:58:16.606Z,95.80
2018-10-21T02:00:45.734Z,95.90
2018-10-21T02:03:14.820Z,96.10
2018-10-21T02:05:44.499Z,96.00
2018-10-21T02:08:13.466Z,96.40
2018-10-21T02:10:42.480Z,96.10
2018-10-21T02:13:11.511Z,96.00
2018-10-21T02:15:40.440Z,95.80
2018-10-21T02:18:09.433Z,95.40
2018-10-21T02:20:38.439Z,95.10
2018-10-21T02:23:07.404Z,95.30
2018-10-21T02:25:36.442Z,95.70
2018-10-21T02:28:05.476Z,95.70
2018-10-21T02:30:34.426Z,95.80
2018-10-21T02:33:03.521Z,95.60
2018-10-21T02:35:32.419Z,95.40
2018-10-21T02:38:01.438Z,94.90
2018-10-21T02:41:45.988Z,94.30
2018-10-21T02:44:17.165Z,94.40
2018-10-21T02:46:46.860Z,95.20
2018-10-21T02:49:16.526Z,95.40
2018-10-21T02:51:50.801Z,95.30
2018-10-21T02:54:30.459Z,95.40
2018-10-21T02:56:59.459Z,95.80
2018-10-21T02:59:28.459Z,95.60
2018-10-21T03:01:57.439Z,95.70
2018-10-21T03:04:26.397Z,95.80
2018-10-21T03:06:55.374Z,95.70
2018-10-21T03:09:24.341Z,95.40
2018-10-21T03:12:03.051Z,95.70
2018-10-21T03:14:31.996Z,95.80
2018-10-21T03:17:00.989Z,95.90
2018-10-21T03:19:30.052Z,96.00
2018-10-21T03:21:59.577Z,96.00
2018-10-21T03:24:29.412Z,96.20
2018-10-21T03:26:58.411Z,96.00
2018-10-21T03:29:27.507Z,96.00
2018-10-21T03:31:56.468Z,96.00
2018-10-21T03:34:25.416Z,95.90
2018-10-21T03:36:54.389Z,96.00
2018-10-21T03:39:23.372Z,96.10
2018-10-21T03:41:52.343Z,96.00
2018-10-21T03:44:21.288Z,96.00
2018-10-21T03:46:50.241Z,95.80
2018-10-21T03:49:19.188Z,95.90
2018-10-21T03:51:48.155Z,96.10
2018-10-21T03:54:17.139Z,96.00
2018-10-21T03:56:46.467Z,95.80
2018-10-21T03:59:15.456Z,95.90
2018-10-21T04:01:44.477Z,95.90
2018-10-21T04:04:13.415Z,96.00
2018-10-21T04:06:42.394Z,96.00
2018-10-21T04:09:11.364Z,96.10
2018-10-21T04:11:40.341Z,96.10
2018-10-21T04:14:09.345Z,96.10
2018-10-21T04:16:39.582Z,96.00
2018-10-21T04:19:08.584Z,96.40
2018-10-21T04:21:38.910Z,96.10
2018-10-21T04:24:08.364Z,96.00
2018-10-21T04:26:37.298Z,96.30
2018-10-21T04:29:06.283Z,96.00
2018-10-21T04:31:35.234Z,95.80
2018-10-21T04:34:04.301Z,95.90
2018-10-21T04:36:34.210Z,95.90
2018-10-21T04:40:16.242Z,95.70
2018-10-21T04:42:45.791Z,95.60
2018-10-21T04:45:17.190Z,95.80
2018-10-21T04:47:46.152Z,95.90
2018-10-21T04:50:15.244Z,95.50
2018-10-21T04:52:44.213Z,95.10
2018-10-21T04:55:15.284Z,94.60
2018-10-21T04:57:45.433Z,94.80
2018-10-21T05:00:16.684Z,94.80
2018-10-21T05:02:45.641Z,95.10
2018-10-21T05:05:15.346Z,95.10
2018-10-21T05:07:44.316Z,95.00
2018-10-21T05:10:23.786Z,94.90
2018-10-21T05:12:52.789Z,95.20
2018-10-21T05:15:22.783Z,95.90
2018-10-21T05:17:51.937Z,94.70
2018-10-21T05:20:20.932Z,93.30
2018-10-21T05:22:51.275Z,94.10
2018-10-21T05:25:21.329Z,94.30
2018-10-21T05:27:50.295Z,94.80
2018-10-21T05:30:19.288Z,95.30
2018-10-21T05:32:48.251Z,95.70
2018-10-21T05:35:18.227Z,96.00
2018-10-21T05:37:48.024Z,96.10
2018-10-21T05:40:18.688Z,96.20
2018-10-21T05:42:47.853Z,96.50
2018-10-21T05:45:16.828Z,96.50
2018-10-21T05:47:46.870Z,96.30
2018-10-21T05:50:16.364Z,96.20
2018-10-21T05:52:46.372Z,95.70
2018-10-21T05:55:15.889Z,95.80
2018-10-21T05:57:45.012Z,95.80
2018-10-21T06:00:17.646Z,96.10
2018-10-21T06:02:46.642Z,96.50
2018-10-21T06:05:44.032Z,96.70
2018-10-21T06:08:13.010Z,96.40
2018-10-21T06:10:42.624Z,96.60
2018-10-21T06:13:12.744Z,97.20
2018-10-21T06:15:41.878Z,96.20
2018-10-21T06:18:18.036Z,95.50
2018-10-21T06:20:49.305Z,95.50
2018-10-21T06:23:18.238Z,95.20
2018-10-21T06:25:47.330Z,94.70
2018-10-21T06:28:16.288Z,94.40
2018-10-21T06:30:45.242Z,94.20
2018-10-21T06:33:14.279Z,94.40
2018-10-21T06:35:43.276Z,94.40
2018-10-21T06:38:12.251Z,94.60
2018-10-21T06:40:41.263Z,94.40
2018-10-21T06:43:10.693Z,93.90
2018-10-21T06:45:40.316Z,93.00
2018-10-21T06:48:09.285Z,92.00
2018-10-21T06:50:38.272Z,91.60
2018-10-21T06:53:07.256Z,91.70
2018-10-21T06:55:36.257Z,91.90
2018-10-21T06:58:05.523Z,92.10
2018-10-21T07:00:34.529Z,92.50
2018-10-21T07:03:03.508Z,92.90
2018-10-21T07:06:18.864Z,92.90
2018-10-21T07:08:48.644Z,93.30
2018-10-21T07:11:17.632Z,93.40
2018-10-21T07:13:46.574Z,93.80
2018-10-21T07:16:15.882Z,94.00
2018-10-21T07:18:45.777Z,93.80
2018-10-21T07:21:15.040Z,93.90
2018-10-21T07:23:44.139Z,94.20
2018-10-21T07:26:13.109Z,94.40
2018-10-21T07:28:42.081Z,94.80
2018-10-21T07:31:11.010Z,94.70
2018-10-21T07:33:39.968Z,94.50
2018-10-21T07:36:08.971Z,94.50
2018-10-21T07:38:37.950Z,94.40
2018-10-21T07:41:06.933Z,94.00
2018-10-21T07:43:35.912Z,94.10
2018-10-21T07:46:04.947Z,94.00
2018-10-21T07:48:33.904Z,94.10
2018-10-21T07:51:02.847Z,94.10
2018-10-21T07:53:31.894Z,94.50
2018-10-21T07:56:04.584Z,94.80
2018-10-21T07:58:33.648Z,95.00
2018-10-21T08:01:02.731Z,95.20
2018-10-21T08:03:32.708Z,94.90
2018-10-21T08:06:31.034Z,94.60
2018-10-21T08:09:00.041Z,94.50
2018-10-21T08:11:29.042Z,94.30
2018-10-21T08:13:58.719Z,94.30
2018-10-21T08:16:27.689Z,94.20
2018-10-21T08:18:56.697Z,94.20
2018-10-21T08:21:25.724Z,94.20
2018-10-21T08:23:54.772Z,94.10
2018-10-21T08:26:23.743Z,94.10
2018-10-21T08:28:52.763Z,94.20
2018-10-21T08:31:21.722Z,94.30
2018-10-21T08:33:51.269Z,94.60
2018-10-21T08:36:21.572Z,94.30
2018-10-21T08:38:50.546Z,93.90
2018-10-21T08:41:19.490Z,93.80
2018-10-21T08:43:48.667Z,94.10
2018-10-21T08:46:17.792Z,94.10
2018-10-21T08:48:46.761Z,94.30
2018-10-21T08:51:15.826Z,94.50
2018-10-21T08:53:44.865Z,94.60
2018-10-21T08:56:15.600Z,94.60
2018-10-21T08:58:46.285Z,94.80
2018-10-21T09:01:18.073Z,95.20
2018-10-21T09:03:46.944Z,95.40
2018-10-21T09:06:16.104Z,95.30
2018-10-21T09:08:45.056Z,95.20
2018-10-21T09:11:14.026Z,94.90
2018-10-21T09:13:43.018Z,95.00
2018-10-21T09:16:12.087Z,94.40
2018-10-21T09:18:41.102Z,94.10
2018-10-21T09:21:11.255Z,93.90
2018-10-21T09:23:40.229Z,93.80
2018-10-21T09:26:09.322Z,93.70
2018-10-21T09:28:38.271Z,93.80
2018-10-21T09:31:07.335Z,93.90
2018-10-21T09:33:36.298Z,94.10
2018-10-21T09:36:05.388Z,94.00
2018-10-21T09:38:34.799Z,94.10
2018-10-21T09:41:03.780Z,93.90
2018-10-21T09:43:32.722Z,93.90
2018-10-21T09:46:01.719Z,94.00
2018-10-21T09:48:30.715Z,94.10
2018-10-21T09:50:59.751Z,94.00
2018-10-21T09:53:28.712Z,93.80
2018-10-21T09:55:58.753Z,94.00
2018-10-21T09:58:27.731Z,93.90
2018-10-21T10:01:03.323Z,93.40
2018-10-21T10:03:32.258Z,93.60
2018-10-21T10:06:01.236Z,93.80
2018-10-21T10:08:30.188Z,93.40
2018-10-21T10:10:59.167Z,93.20
2018-10-21T10:13:28.130Z,93.10
2018-10-21T10:15:57.189Z,93.50
2018-10-21T10:18:26.892Z,93.40
2018-10-21T10:20:57.028Z,93.30
2018-10-21T10:23:26.018Z,93.50
2018-10-21T10:25:54.994Z,93.60
2018-10-21T10:28:23.940Z,93.60
2018-10-21T10:30:52.908Z,93.90
2018-10-21T10:33:21.894Z,94.20
2018-10-21T10:35:50.888Z,94.30
2018-10-21T10:38:19.856Z,94.70
2018-10-21T10:40:50.281Z,94.80
2018-10-21T10:43:19.297Z,94.80
2018-10-21T10:45:49.031Z,94.70
2018-10-21T10:48:18.006Z,94.80
2018-10-21T10:50:46.972Z,95.00
2018-10-21T10:53:16.044Z,95.10
2018-10-21T10:55:47.136Z,95.20
2018-10-21T10:58:19.111Z,95.30
2018-10-21T11:00:48.055Z,94.80
2018-10-21T11:03:18.486Z,94.70
2018-10-21T11:05:47.438Z,94.60
2018-10-21T11:08:16.460Z,94.30
2018-10-21T11:10:45.462Z,94.20
2018-10-21T11:13:14.510Z,94.00
2018-10-21T11:15:44.432Z,94.00
2018-10-21T11:18:15.113Z,93.80
2018-10-21T11:20:44.074Z,93.80
2018-10-21T11:23:13.474Z,93.30
2018-10-21T11:25:42.452Z,93.30
2018-10-21T11:28:11.561Z,93.40
2018-10-21T11:30:41.733Z,93.60
2018-10-21T11:33:10.739Z,93.80
2018-10-21T11:35:39.680Z,93.60
2018-10-21T11:38:08.679Z,93.70
2018-10-21T11:40:37.679Z,93.90
2018-10-21T11:43:06.736Z,93.90
2018-10-21T11:45:35.809Z,94.30
2018-10-21T11:48:05.319Z,94.10
2018-10-21T11:50:34.967Z,94.50
2018-10-21T11:53:05.576Z,93.80
2018-10-21T11:55:38.382Z,94.00
2018-10-21T11:58:09.714Z,93.70
2018-10-21T12:00:38.946Z,93.90
2018-10-21T12:03:08.522Z,93.90
2018-10-21T12:05:37.572Z,93.80
2018-10-21T12:08:06.581Z,93.50
2018-10-21T12:10:35.616Z,93.60
2018-10-21T12:13:05.043Z,93.50
2018-10-21T12:15:34.512Z,93.10
2018-10-21T12:18:03.564Z,93.00
2018-10-21T12:20:32.645Z,93.00
2018-10-21T12:23:01.680Z,92.80
2018-10-21T12:25:31.230Z,92.60
2018-10-21T12:28:00.276Z,92.30
2018-10-21T12:30:29.355Z,92.30
2018-10-21T12:32:58.364Z,92.30
2018-10-21T12:35:27.436Z,92.50
2018-10-21T12:37:56.510Z,92.40
2018-10-21T12:40:25.529Z,92.20
2018-10-21T12:42:54.537Z,92.20
2018-10-21T12:45:23.559Z,92.10
2018-10-21T12:47:53.237Z,92.00
2018-10-21T12:50:22.199Z,92.00
2018-10-21T12:52:51.181Z,92.00
2018-10-21T12:55:20.190Z,91.70
2018-10-21T12:57:49.123Z,91.50
2018-10-21T13:00:18.128Z,91.50
2018-10-21T13:02:47.112Z,91.60
2018-10-21T13:05:16.084Z,91.50
2018-10-21T13:07:45.022Z,91.40
2018-10-21T13:10:14.067Z,91.70
2018-10-21T13:12:42.965Z,91.60
2018-10-21T13:15:11.956Z,91.70
2018-10-21T13:17:41.451Z,91.30
2018-10-21T13:20:10.422Z,91.00
2018-10-21T13:22:39.374Z,90.90
2018-10-21T13:25:08.441Z,90.70
2018-10-21T13:27:37.445Z,90.90
2018-10-21T13:30:07.338Z,90.70
2018-10-21T13:32:37.167Z,90.70
2018-10-21T13:35:06.512Z,90.60
2018-10-21T13:37:36.777Z,90.60
2018-10-21T13:40:06.218Z,90.40
2018-10-21T13:42:39.239Z,90.40
2018-10-21T13:45:11.961Z,90.10
2018-10-21T13:47:43.160Z,90.00
2018-10-21T13:50:13.042Z,89.50
2018-10-21T13:52:42.145Z,89.90
2018-10-21T13:55:11.248Z,90.10
2018-10-21T13:57:40.267Z,89.80
2018-10-21T14:00:09.534Z,90.10
2018-10-21T14:02:38.604Z,90.40
2018-10-21T14:05:08.125Z,90.60
2018-10-21T14:07:37.127Z,90.50
2018-10-21T14:10:06.135Z,90.60
2018-10-21T14:12:35.093Z,90.30
2018-10-21T14:15:04.178Z,90.10
2018-10-21T14:17:33.191Z,90.10
2018-10-21T14:20:02.201Z,90.20
2018-10-21T14:22:31.420Z,90.00
2018-10-21T14:25:00.510Z,89.90
2018-10-21T14:27:30.807Z,90.00
2018-10-21T14:30:00.193Z,89.90
2018-10-21T14:32:29.110Z,89.70
2018-10-21T14:34:58.065Z,89.40
2018-10-21T14:37:27.120Z,89.20
2018-10-21T14:39:56.061Z,90.00
2018-10-21T14:42:25.131Z,89.50
2018-10-21T14:44:54.101Z,89.40
2018-10-21T14:47:23.151Z,90.00
2018-10-21T14:49:52.099Z,90.10
2018-10-21T14:52:21.136Z,90.10
2018-10-21T14:54:50.125Z,90.00
2018-10-21T14:57:19.175Z,90.00
2018-10-21T14:59:48.201Z,89.10
2018-10-21T15:02:17.206Z,89.50
2018-10-21T15:04:46.120Z,90.00
2018-10-21T15:07:16.143Z,90.10
2018-10-21T15:09:45.321Z,90.10
2018-10-21T15:12:14.314Z,90.20
2018-10-21T15:14:43.282Z,90.40
2018-10-21T15:17:12.882Z,90.80
2018-10-21T15:19:41.906Z,91.10
2018-10-21T15:22:10.949Z,91.10
2018-10-21T15:24:39.965Z,91.30
2018-10-21T15:27:09.008Z,91.40
2018-10-21T15:29:37.993Z,91.30
2018-10-21T15:32:06.987Z,91.50
2018-10-21T15:34:36.349Z,91.60
2018-10-21T15:37:06.361Z,91.80
2018-10-21T15:39:35.390Z,91.80
2018-10-21T15:42:04.427Z,91.80
2018-10-21T15:44:33.423Z,91.90
2018-10-21T15:47:02.370Z,91.80
2018-10-21T15:49:32.545Z,91.50
2018-10-21T15:52:01.593Z,91.60
2018-10-21T15:54:31.158Z,92.10
2018-10-21T15:57:00.096Z,92.50
2018-10-21T15:59:29.240Z,92.60
2018-10-21T16:01:58.307Z,92.70
2018-10-21T16:04:27.212Z,92.90
2018-10-21T16:06:56.193Z,92.90
2018-10-21T16:09:25.159Z,92.80
2018-10-21T16:11:54.133Z,92.60
2018-10-21T16:14:23.684Z,92.70
2018-10-21T16:16:52.612Z,92.60
2018-10-21T16:19:21.568Z,92.40
2018-10-21T16:21:50.534Z,92.20
2018-10-21T16:24:19.567Z,92.20
2018-10-21T16:26:48.561Z,92.10
2018-10-21T16:29:17.524Z,92.20
2018-10-21T16:31:46.553Z,92.10
2018-10-21T16:34:16.030Z,92.30
2018-10-21T16:36:44.811Z,92.50
2018-10-21T16:39:13.880Z,92.60
2018-10-21T16:41:42.793Z,92.60
2018-10-21T16:44:11.784Z,92.10
2018-10-21T16:46:40.781Z,92.30
2018-10-21T16:49:09.805Z,92.30
2018-10-21T16:51:38.802Z,92.20
2018-10-21T16:54:07.826Z,92.10
2018-10-21T16:56:36.751Z,92.20
2018-10-21T16:59:05.710Z,92.10
2018-10-21T17:01:34.723Z,92.10
2018-10-21T17:04:03.692Z,91.80
2018-10-21T17:06:32.699Z,91.90
2018-10-21T17:09:01.899Z,91.80
2018-10-21T17:11:30.768Z,91.50
2018-10-21T17:13:59.780Z,91.80
2018-10-21T17:16:28.811Z,91.90
2018-10-21T17:18:57.779Z,91.60
2018-10-21T17:21:26.745Z,91.90
2018-10-21T17:23:55.719Z,92.40
2018-10-21T17:26:26.025Z,92.70
2018-10-21T17:28:55.013Z,92.30
2018-10-21T17:31:23.994Z,92.50
2018-10-21T17:33:53.077Z,92.40
2018-10-21T17:36:22.043Z,92.60
2018-10-21T17:38:51.022Z,92.30
2018-10-21T17:41:20.347Z,92.10
2018-10-21T17:43:49.282Z,92.20
2018-10-21T17:46:18.383Z,92.20
2018-10-21T17:48:47.692Z,92.30
2018-10-21T17:51:16.695Z,92.50
2018-10-21T17:53:45.651Z,92.10
2018-10-21T17:56:14.614Z,92.20
2018-10-21T17:58:45.001Z,91.90
2018-10-21T18:01:14.006Z,92.10
2018-10-21T18:03:42.964Z,91.80
2018-10-21T18:06:11.945Z,92.40
2018-10-21T18:08:40.971Z,91.10
2018-10-21T18:11:10.382Z,91.30
2018-10-21T18:13:40.236Z,91.10
2018-10-21T18:16:09.745Z,91.10
2018-10-21T18:18:38.698Z,91.20
2018-10-21T18:21:07.711Z,91.10
2018-10-21T18:23:36.667Z,91.00
2018-10-21T18:26:05.758Z,91.00
2018-10-21T18:28:34.695Z,91.60
2018-10-21T18:31:03.759Z,91.70
2018-10-21T18:33:32.690Z,91.60
2018-10-21T18:36:01.655Z,91.70
2018-10-21T18:38:30.631Z,92.00
2018-10-21T18:41:00.683Z,92.30
2018-10-21T18:43:29.537Z,92.20
2018-10-21T18:45:58.560Z,92.00
2018-10-21T18:48:28.160Z,92.00
2018-10-21T18:50:57.130Z,92.00
2018-10-21T18:53:26.145Z,92.20
2018-10-21T18:55:55.117Z,92.40
2018-10-21T18:58:24.108Z,92.50
2018-10-21T19:00:53.084Z,92.50
2018-10-21T19:03:22.113Z,92.70
2018-10-21T19:05:51.055Z,92.90
2018-10-21T19:08:20.055Z,92.80
2018-10-21T19:10:49.003Z,92.50
2018-10-21T19:13:18.118Z,92.20
2018-10-21T19:15:47.063Z,91.90
2018-10-21T19:18:16.056Z,91.80
2018-10-21T19:20:45.013Z,91.50
2018-10-21T19:23:13.998Z,91.10
2018-10-21T19:25:42.956Z,91.30
2018-10-21T19:28:11.989Z,91.40
2018-10-21T19:30:40.905Z,91.60
2018-10-21T19:33:10.008Z,91.90
2018-10-21T19:35:38.986Z,91.90
2018-10-21T19:38:08.001Z,91.80
2018-10-21T19:40:36.948Z,91.80
2018-10-21T19:43:05.969Z,91.40
2018-10-21T19:45:34.905Z,91.30
2018-10-21T19:48:04.524Z,91.50
2018-10-21T19:50:34.534Z,91.70
2018-10-21T19:53:03.497Z,91.80
2018-10-21T19:55:32.428Z,92.30
2018-10-21T19:58:01.484Z,92.20
2018-10-21T20:00:30.430Z,92.10
2018-10-21T20:02:59.395Z,91.70
2018-10-21T20:05:28.411Z,91.40
2018-10-21T20:07:57.365Z,91.50
2018-10-21T20:10:28.043Z,91.60
2018-10-21T20:12:57.004Z,91.90
2018-10-21T20:15:26.004Z,92.10
2018-10-21T20:17:56.385Z,92.70
2018-10-21T20:20:25.549Z,92.60
2018-10-21T20:22:54.506Z,92.80
2018-10-21T20:25:24.342Z,93.00
2018-10-21T20:27:53.302Z,93.20
2018-10-21T20:30:22.316Z,93.20
2018-10-21T20:32:51.407Z,93.30
2018-10-21T20:35:20.363Z,92.90
2018-10-21T20:37:49.327Z,93.30
2018-10-21T20:40:18.381Z,93.20
2018-10-21T20:42:47.353Z,93.10
2018-10-21T20:45:16.404Z,92.80
2018-10-21T20:47:45.405Z,92.70
2018-10-21T20:50:14.387Z,93.00
2018-10-21T20:52:43.358Z,93.10
2018-10-21T20:55:12.369Z,93.00
2018-10-21T20:57:41.439Z,92.90
2018-10-21T21:00:10.438Z,92.80
2018-10-21T21:02:39.325Z,92.80
2018-10-21T21:05:10.519Z,93.00
2018-10-21T21:07:39.485Z,93.10
2018-10-21T21:10:08.999Z,93.40
2018-10-21T21:12:37.933Z,93.70
2018-10-21T21:15:07.520Z,93.50
2018-10-21T21:17:36.484Z,93.70
2018-10-21T21:20:07.311Z,93.60
2018-10-21T21:22:36.305Z,93.30
2018-10-21T21:25:05.759Z,93.60
2018-10-21T21:27:34.937Z,93.40
2018-10-21T21:30:04.239Z,93.00
2018-10-21T21:32:33.193Z,93.10
2018-10-21T21:35:02.151Z,93.60
2018-10-21T21:37:31.157Z,93.70
2018-10-21T21:40:00.133Z,93.80
2018-10-21T21:42:29.106Z,93.80
2018-10-21T21:44:58.099Z,94.10
2018-10-21T21:47:27.083Z,94.00
2018-10-21T21:49:56.056Z,94.40
2018-10-21T21:52:25.031Z,94.30
2018-10-21T21:54:53.984Z,94.40
2018-10-21T21:57:22.961Z,94.90
2018-10-21T21:59:51.975Z,94.70
2018-10-21T22:02:20.962Z,95.00
2018-10-21T22:04:49.931Z,95.10
2018-10-21T22:07:18.912Z,95.10
2018-10-21T22:09:47.981Z,94.60
2018-10-21T22:12:16.995Z,94.70
2018-10-21T22:14:45.915Z,95.00
2018-10-21T22:17:14.877Z,94.70
2018-10-21T22:19:43.860Z,94.50
2018-10-21T22:22:12.895Z,94.50
2018-10-21T22:24:41.815Z,94.50
2018-10-21T22:27:10.859Z,94.90
2018-10-21T22:29:39.910Z,95.00
2018-10-21T22:32:08.905Z,94.40
2018-10-21T22:34:37.869Z,94.40
2018-10-21T22:37:07.345Z,94.40
2018-10-21T22:39:36.778Z,94.70
2018-10-21T22:42:05.811Z,94.80
2018-10-21T22:44:35.088Z,94.90
2018-10-21T22:47:04.049Z,94.50
2018-10-21T22:49:33.163Z,94.80
2018-10-21T22:52:02.289Z,95.40
2018-10-21T22:54:31.260Z,95.80
2018-10-21T22:57:00.197Z,96.20
2018-10-21T22:59:29.196Z,96.30
2018-10-21T23:01:58.156Z,96.00
2018-10-21T23:04:27.134Z,95.80
2018-10-21T23:06:56.091Z,95.80
2018-10-21T23:09:25.059Z,95.70
2018-10-21T23:11:54.025Z,95.50
2018-10-21T23:14:23.000Z,95.30
2018-10-21T23:16:52.037Z,94.90
2018-10-21T23:19:32.362Z,94.70
2018-10-21T23:22:01.299Z,95.00
2018-10-21T23:24:32.212Z,95.20
2018-10-21T23:27:01.260Z,94.50
2018-10-21T23:29:30.261Z,95.00
2018-10-21T23:31:59.215Z,95.30
2018-10-21T23:34:28.451Z,95.80
2018-10-21T23:36:57.628Z,95.70
2018-10-21T23:39:27.570Z,95.50
2018-10-21T23:41:56.918Z,95.80
2018-10-21T23:44:25.837Z,95.80
2018-10-21T23:46:55.223Z,95.90
2018-10-21T23:49:24.284Z,95.90
2018-10-21T23:51:53.268Z,95.80
2018-10-21T23:54:22.255Z,95.80
2018-10-21T23:56:51.216Z,95.50
2018-10-21T23:59:20.221Z,95.50
